PWSweather.com
Personal Weather Stations
Station Observations
MADWEATHER
MadeiraPT

MadeiraPT

Lat: 32.735, Lon: -17.194

Elevation: 1063

Station Type: Davis VantagePro2

Latest ConditionsUpdated 5:20:01 PM GMT Sunday, Jan 26, 2020
Currently Today's Max Today's Min Today's Average
Temperature 62.7°F17.1°C 65.6°F18.7°C 55.2°F12.9°C 58.9°F14.9°C
Dew Point 49.5°F9.7°C 49.6°F9.8°C 41.0°F5.0°C 45.1°F7.3°C
Winds 4.6 mph NW7.4 kmh NW 6.9 mph -11.1 kmh - - 2.8 mph 4.5 kmh
Wind Gusts 6.9 mph11.1 kmh 10.4 mph16.7 kmh - -
Humidity 62% 66% 55% 60%
Pressure 30.24 in1024.0 mb 30.30 in1026.1 mb 30.22 in1023.4 mb -
Hour Temp Dew Point Humidity Winds Wind Gusts Pressure Precip Precip Rate Daily Precip Total
05:20 PM 62.7°F17.1°C 49.5°F9.7°C 62% 4.6 mph NW7.4 kmh NW 6.9 mph11.1 kmh 30.24 in1024.0 mb - 0.00 in0.0 mm 0.00 in0.0 mm
05:10 PM 63.0°F17.2°C 48.5°F9.2°C 59% 4.6 mph NW7.4 kmh NW 4.6 mph7.4 kmh 30.24 in1024.0 mb - 0.00 in0.0 mm 0.00 in0.0 mm
05:00 PM 62.7°F17.1°C 49.5°F9.7°C 62% 2.3 mph NW3.7 kmh NW 5.8 mph9.3 kmh 30.25 in1024.4 mb - 0.00 in0.0 mm 0.00 in0.0 mm
04:50 PM 63.1°F17.3°C 49.4°F9.7°C 61% 5.8 mph NW9.3 kmh NW 5.8 mph9.3 kmh 30.24 in1024.0 mb - 0.00 in0.0 mm 0.00 in0.0 mm
04:40 PM 62.2°F16.8°C 48.6°F9.2°C 61% 2.3 mph NW3.7 kmh NW 3.5 mph5.6 kmh 30.24 in1024.0 mb - 0.00 in0.0 mm 0.00 in0.0 mm
04:30 PM 63.0°F17.2°C 48.5°F9.2°C 59% 1.2 mph NW1.9 kmh NW 5.8 mph9.3 kmh 30.24 in1024.0 mb - 0.00 in0.0 mm 0.00 in0.0 mm
04:20 PM 62.6°F17.0°C 49.4°F9.7°C 62% 4.6 mph NW7.4 kmh NW 9.2 mph14.8 kmh 30.24 in1024.0 mb - 0.00 in0.0 mm 0.00 in0.0 mm
04:10 PM 62.5°F16.9°C 48.9°F9.4°C 61% 4.6 mph NW7.4 kmh NW 5.8 mph9.3 kmh 30.24 in1024.0 mb - 0.00 in0.0 mm 0.00 in0.0 mm
04:00 PM 63.2°F17.3°C 49.1°F9.5°C 60% 5.8 mph NW9.3 kmh NW 6.9 mph11.1 kmh 30.24 in1024.0 mb - 0.00 in0.0 mm 0.00 in0.0 mm
03:50 PM 62.4°F16.9°C 48.8°F9.3°C 61% 4.6 mph NW7.4 kmh NW 5.8 mph9.3 kmh 30.23 in1023.7 mb - 0.00 in0.0 mm 0.00 in0.0 mm
03:40 PM 63.3°F17.4°C 49.1°F9.5°C 60% 4.6 mph NW7.4 kmh NW 6.9 mph11.1 kmh 30.23 in1023.7 mb - 0.00 in0.0 mm 0.00 in0.0 mm
03:30 PM 63.8°F17.7°C 49.6°F9.8°C 60% 6.9 mph NW11.1 kmh NW 10.4 mph16.7 kmh 30.24 in1024.0 mb - 0.00 in0.0 mm 0.00 in0.0 mm
03:20 PM 62.7°F17.1°C 49.5°F9.7°C 62% 5.8 mph NW9.3 kmh NW 10.4 mph16.7 kmh 30.24 in1024.0 mb - 0.00 in0.0 mm 0.00 in0.0 mm
03:10 PM 64.0°F17.8°C 49.4°F9.7°C 59% 5.8 mph NW9.3 kmh NW 6.9 mph11.1 kmh 30.24 in1024.0 mb - 0.00 in0.0 mm 0.00 in0.0 mm
03:00 PM 65.3°F18.5°C 49.6°F9.8°C 57% 4.6 mph NW7.4 kmh NW 5.8 mph9.3 kmh 30.24 in1024.0 mb - 0.00 in0.0 mm 0.00 in0.0 mm
02:50 PM 64.4°F18.0°C 47.9°F8.8°C 55% 5.8 mph NW9.3 kmh NW 6.9 mph11.1 kmh 30.24 in1024.0 mb - 0.00 in0.0 mm 0.00 in0.0 mm
02:40 PM 65.0°F18.3°C 48.9°F9.4°C 56% 4.6 mph NW7.4 kmh NW 6.9 mph11.1 kmh 30.24 in1024.0 mb - 0.00 in0.0 mm 0.00 in0.0 mm
02:30 PM 65.6°F18.7°C 49.4°F9.7°C 56% 4.6 mph NW7.4 kmh NW 6.9 mph11.1 kmh 30.25 in1024.4 mb - 0.00 in0.0 mm 0.00 in0.0 mm
02:20 PM 63.7°F17.6°C 48.6°F9.2°C 58% 4.6 mph NW7.4 kmh NW 5.8 mph9.3 kmh 30.25 in1024.4 mb - 0.00 in0.0 mm 0.00 in0.0 mm
02:10 PM 63.9°F17.7°C 48.8°F9.3°C 58% 5.8 mph NW9.3 kmh NW 6.9 mph11.1 kmh 30.25 in1024.4 mb - 0.00 in0.0 mm 0.00 in0.0 mm
02:00 PM 65.0°F18.3°C 48.9°F9.4°C 56% 4.6 mph NW7.4 kmh NW 9.2 mph14.8 kmh 30.25 in1024.4 mb - 0.00 in0.0 mm 0.00 in0.0 mm
01:50 PM 64.3°F17.9°C 49.2°F9.6°C 58% 4.6 mph NNW7.4 kmh NNW 6.9 mph11.1 kmh 30.26 in1024.7 mb - 0.00 in0.0 mm 0.00 in0.0 mm
01:40 PM 63.1°F17.3°C 48.1°F8.9°C 58% 4.6 mph NNW7.4 kmh NNW 6.9 mph11.1 kmh 30.26 in1024.7 mb - 0.00 in0.0 mm 0.00 in0.0 mm
01:30 PM 63.5°F17.5°C 47.5°F8.6°C 56% 5.8 mph N9.3 kmh N 6.9 mph11.1 kmh 30.26 in1024.7 mb - 0.00 in0.0 mm 0.00 in0.0 mm
01:20 PM 64.7°F18.2°C 48.6°F9.2°C 56% 4.6 mph N7.4 kmh N 5.8 mph9.3 kmh 30.27 in1025.1 mb - 0.00 in0.0 mm 0.00 in0.0 mm
01:10 PM 63.4°F17.4°C 48.8°F9.3°C 59% 3.5 mph NNE5.6 kmh NNE 5.8 mph9.3 kmh 30.27 in1025.1 mb - 0.00 in0.0 mm 0.00 in0.0 mm
01:00 PM 62.8°F17.1°C 48.3°F9.1°C 59% 4.6 mph NNE7.4 kmh NNE 5.8 mph9.3 kmh 30.28 in1025.4 mb - 0.00 in0.0 mm 0.00 in0.0 mm
12:50 PM 62.6°F17.0°C 48.0°F8.9°C 59% 4.6 mph NE7.4 kmh NE 5.8 mph9.3 kmh 30.28 in1025.4 mb - 0.00 in0.0 mm 0.00 in0.0 mm
12:40 PM 62.5°F16.9°C 48.4°F9.1°C 60% 3.5 mph NE5.6 kmh NE 4.6 mph7.4 kmh 30.29 in1025.7 mb - 0.00 in0.0 mm 0.00 in0.0 mm
12:30 PM 62.6°F17.0°C 48.5°F9.2°C 60% 4.6 mph NE7.4 kmh NE 4.6 mph7.4 kmh 30.29 in1025.7 mb - 0.00 in0.0 mm 0.00 in0.0 mm
12:20 PM 61.9°F16.6°C 49.2°F9.6°C 63% 5.8 mph NE9.3 kmh NE 8.1 mph13.0 kmh 30.29 in1025.7 mb - 0.00 in0.0 mm 0.00 in0.0 mm
12:10 PM 62.9°F17.2°C 48.3°F9.1°C 59% 3.5 mph NE5.6 kmh NE 5.8 mph9.3 kmh 30.30 in1026.1 mb - 0.00 in0.0 mm 0.00 in0.0 mm
12:00 PM 61.2°F16.2°C 47.6°F8.7°C 61% 2.3 mph NE3.7 kmh NE 3.5 mph5.6 kmh 30.30 in1026.1 mb - 0.00 in0.0 mm 0.00 in0.0 mm
11:50 AM 60.8°F16.0°C 48.1°F8.9°C 63% 2.3 mph NE3.7 kmh NE 3.5 mph5.6 kmh 30.30 in1026.1 mb - 0.00 in0.0 mm 0.00 in0.0 mm
11:40 AM 60.5°F15.8°C 48.3°F9.1°C 64% 2.3 mph NE3.7 kmh NE 3.5 mph5.6 kmh 30.30 in1026.1 mb - 0.00 in0.0 mm 0.00 in0.0 mm
11:30 AM 60.1°F15.6°C 46.6°F8.1°C 61% 3.5 mph NE5.6 kmh NE 3.5 mph5.6 kmh 30.30 in1026.1 mb - 0.00 in0.0 mm 0.00 in0.0 mm
11:20 AM 59.8°F15.4°C 47.2°F8.4°C 63% Calm Calm 2.3 mph3.7 kmh 30.30 in1026.1 mb - 0.00 in0.0 mm 0.00 in0.0 mm
11:10 AM 60.0°F15.6°C 46.5°F8.1°C 61% 2.3 mph NE3.7 kmh NE 3.5 mph5.6 kmh 30.30 in1026.1 mb - 0.00 in0.0 mm 0.00 in0.0 mm
11:00 AM 59.8°F15.4°C 47.2°F8.4°C 63% Calm Calm -- 30.30 in1026.1 mb - 0.00 in0.0 mm 0.00 in0.0 mm
10:50 AM 59.8°F15.4°C 46.3°F7.9°C 61% 2.3 mph NE3.7 kmh NE 2.3 mph3.7 kmh 30.29 in1025.7 mb - 0.00 in0.0 mm 0.00 in0.0 mm
10:40 AM 59.8°F15.4°C 46.8°F8.2°C 62% Calm Calm 1.2 mph1.9 kmh 30.29 in1025.7 mb - 0.00 in0.0 mm 0.00 in0.0 mm
10:30 AM 59.9°F15.5°C 46.8°F8.2°C 62% Calm Calm 1.2 mph1.9 kmh 30.29 in1025.7 mb - 0.00 in0.0 mm 0.00 in0.0 mm
10:20 AM 59.5°F15.3°C 46.9°F8.3°C 63% Calm Calm -- 30.28 in1025.4 mb - 0.00 in0.0 mm 0.00 in0.0 mm
10:10 AM 59.5°F15.3°C 47.3°F8.5°C 64% 1.2 mph NE1.9 kmh NE 3.5 mph5.6 kmh 30.28 in1025.4 mb - 0.00 in0.0 mm 0.00 in0.0 mm
10:00 AM 59.9°F15.5°C 47.2°F8.4°C 63% 1.2 mph NE1.9 kmh NE 2.3 mph3.7 kmh 30.28 in1025.4 mb - 0.00 in0.0 mm 0.00 in0.0 mm
09:50 AM 60.0°F15.6°C 46.1°F7.8°C 60% Calm Calm -- 30.28 in1025.4 mb - 0.00 in0.0 mm 0.00 in0.0 mm
09:40 AM 59.2°F15.1°C 47.0°F8.3°C 64% 1.2 mph NE1.9 kmh NE 3.5 mph5.6 kmh 30.28 in1025.4 mb - 0.00 in0.0 mm 0.00 in0.0 mm
09:30 AM 58.2°F14.6°C 46.9°F8.3°C 66% 2.3 mph NE3.7 kmh NE 3.5 mph5.6 kmh 30.28 in1025.4 mb - 0.00 in0.0 mm 0.00 in0.0 mm
09:20 AM 57.8°F14.3°C 46.5°F8.1°C 66% Calm Calm -- 30.27 in1025.1 mb - 0.00 in0.0 mm 0.00 in0.0 mm
09:10 AM 57.7°F14.3°C 46.0°F7.8°C 65% Calm Calm 2.3 mph3.7 kmh 30.28 in1025.4 mb - 0.00 in0.0 mm 0.00 in0.0 mm
09:00 AM 57.5°F14.2°C 45.8°F7.7°C 65% Calm Calm 3.5 mph5.6 kmh 30.28 in1025.4 mb - 0.00 in0.0 mm 0.00 in0.0 mm
08:50 AM 57.2°F14.0°C 45.1°F7.3°C 64% Calm Calm 1.2 mph1.9 kmh 30.28 in1025.4 mb - 0.00 in0.0 mm 0.00 in0.0 mm
08:40 AM 56.8°F13.8°C 44.8°F7.1°C 64% Calm Calm 1.2 mph1.9 kmh 30.27 in1025.1 mb - 0.00 in0.0 mm 0.00 in0.0 mm
08:30 AM 56.4°F13.6°C 44.4°F6.9°C 64% Calm Calm 2.3 mph3.7 kmh 30.27 in1025.1 mb - 0.00 in0.0 mm 0.00 in0.0 mm
08:20 AM 55.6°F13.1°C 43.6°F6.4°C 64% Calm Calm 1.2 mph1.9 kmh 30.27 in1025.1 mb - 0.00 in0.0 mm 0.00 in0.0 mm
08:10 AM 55.5°F13.1°C 43.5°F6.4°C 64% 2.3 mph NE3.7 kmh NE 3.5 mph5.6 kmh 30.26 in1024.7 mb - 0.00 in0.0 mm 0.00 in0.0 mm
08:00 AM 55.3°F12.9°C 43.3°F6.3°C 64% 1.2 mph NE1.9 kmh NE 2.3 mph3.7 kmh 30.26 in1024.7 mb - 0.00 in0.0 mm 0.00 in0.0 mm
07:50 AM 55.2°F12.9°C 43.2°F6.2°C 64% 3.5 mph NE5.6 kmh NE 4.6 mph7.4 kmh 30.25 in1024.4 mb - 0.00 in0.0 mm 0.00 in0.0 mm
07:40 AM 55.3°F12.9°C 42.9°F6.1°C 63% 3.5 mph NE5.6 kmh NE 3.5 mph5.6 kmh 30.25 in1024.4 mb - 0.00 in0.0 mm 0.00 in0.0 mm
07:30 AM 55.4°F13.0°C 42.6°F5.9°C 62% 2.3 mph NE3.7 kmh NE 3.5 mph5.6 kmh 30.25 in1024.4 mb - 0.00 in0.0 mm 0.00 in0.0 mm
07:20 AM 55.8°F13.2°C 42.5°F5.8°C 61% 2.3 mph NE3.7 kmh NE 3.5 mph5.6 kmh 30.24 in1024.0 mb - 0.00 in0.0 mm 0.00 in0.0 mm
07:10 AM 56.1°F13.4°C 42.8°F6.0°C 61% 1.2 mph NE1.9 kmh NE 2.3 mph3.7 kmh 30.24 in1024.0 mb - 0.00 in0.0 mm 0.00 in0.0 mm
07:00 AM 56.2°F13.4°C 42.9°F6.1°C 61% 2.3 mph NE3.7 kmh NE 3.5 mph5.6 kmh 30.24 in1024.0 mb - 0.00 in0.0 mm 0.00 in0.0 mm
06:50 AM 56.2°F13.4°C 42.9°F6.1°C 61% 2.3 mph NE3.7 kmh NE 3.5 mph5.6 kmh 30.23 in1023.7 mb - 0.00 in0.0 mm 0.00 in0.0 mm
06:40 AM 56.2°F13.4°C 43.3°F6.3°C 62% 2.3 mph NE3.7 kmh NE 4.6 mph7.4 kmh 30.23 in1023.7 mb - 0.00 in0.0 mm 0.00 in0.0 mm
06:30 AM 56.2°F13.4°C 43.3°F6.3°C 62% 2.3 mph NE3.7 kmh NE 3.5 mph5.6 kmh 30.23 in1023.7 mb - 0.00 in0.0 mm 0.00 in0.0 mm
06:20 AM 56.2°F13.4°C 43.3°F6.3°C 62% 1.2 mph NE1.9 kmh NE 3.5 mph5.6 kmh 30.23 in1023.7 mb - 0.00 in0.0 mm 0.00 in0.0 mm
06:10 AM 56.1°F13.4°C 43.3°F6.3°C 62% 1.2 mph NE1.9 kmh NE 3.5 mph5.6 kmh 30.23 in1023.7 mb - 0.00 in0.0 mm 0.00 in0.0 mm
06:00 AM 55.8°F13.2°C 43.0°F6.1°C 62% 2.3 mph NE3.7 kmh NE 3.5 mph5.6 kmh 30.23 in1023.7 mb - 0.00 in0.0 mm 0.00 in0.0 mm
05:50 AM 55.7°F13.2°C 42.5°F5.8°C 61% 3.5 mph NE5.6 kmh NE 4.6 mph7.4 kmh 30.23 in1023.7 mb - 0.00 in0.0 mm 0.00 in0.0 mm
05:40 AM 55.8°F13.2°C 42.1°F5.6°C 60% 2.3 mph NE3.7 kmh NE 3.5 mph5.6 kmh 30.23 in1023.7 mb - 0.00 in0.0 mm 0.00 in0.0 mm
05:30 AM 55.9°F13.3°C 42.2°F5.7°C 60% 1.2 mph NE1.9 kmh NE 3.5 mph5.6 kmh 30.22 in1023.4 mb - 0.00 in0.0 mm 0.00 in0.0 mm
05:20 AM 55.9°F13.3°C 42.2°F5.7°C 60% 2.3 mph NE3.7 kmh NE 3.5 mph5.6 kmh 30.22 in1023.4 mb - 0.00 in0.0 mm 0.00 in0.0 mm
05:10 AM 56.0°F13.3°C 42.7°F5.9°C 61% 1.2 mph NE1.9 kmh NE 2.3 mph3.7 kmh 30.22 in1023.4 mb - 0.00 in0.0 mm 0.00 in0.0 mm
05:00 AM 55.9°F13.3°C 42.2°F5.7°C 60% 2.3 mph NE3.7 kmh NE 4.6 mph7.4 kmh 30.22 in1023.4 mb - 0.00 in0.0 mm 0.00 in0.0 mm
04:50 AM 55.7°F13.2°C 42.0°F5.6°C 60% 1.2 mph NE1.9 kmh NE 3.5 mph5.6 kmh 30.23 in1023.7 mb - 0.00 in0.0 mm 0.00 in0.0 mm
04:40 AM 55.5°F13.1°C 41.8°F5.4°C 60% 2.3 mph NE3.7 kmh NE 3.5 mph5.6 kmh 30.23 in1023.7 mb - 0.00 in0.0 mm 0.00 in0.0 mm
04:30 AM 55.3°F12.9°C 41.6°F5.3°C 60% 2.3 mph NE3.7 kmh NE 3.5 mph5.6 kmh 30.23 in1023.7 mb - 0.00 in0.0 mm 0.00 in0.0 mm
04:20 AM 55.3°F12.9°C 41.2°F5.1°C 59% 1.2 mph NE1.9 kmh NE 3.5 mph5.6 kmh 30.23 in1023.7 mb - 0.00 in0.0 mm 0.00 in0.0 mm
04:10 AM 55.2°F12.9°C 41.1°F5.1°C 59% 1.2 mph NE1.9 kmh NE 2.3 mph3.7 kmh 30.23 in1023.7 mb - 0.00 in0.0 mm 0.00 in0.0 mm
04:00 AM 55.2°F12.9°C 41.1°F5.1°C 59% Calm Calm 2.3 mph3.7 kmh 30.23 in1023.7 mb - 0.00 in0.0 mm 0.00 in0.0 mm
03:50 AM 55.3°F12.9°C 41.2°F5.1°C 59% 1.2 mph NE1.9 kmh NE 3.5 mph5.6 kmh 30.22 in1023.4 mb - 0.00 in0.0 mm 0.00 in0.0 mm
03:40 AM 55.3°F12.9°C 41.2°F5.1°C 59% 2.3 mph NE3.7 kmh NE 4.6 mph7.4 kmh 30.23 in1023.7 mb - 0.00 in0.0 mm 0.00 in0.0 mm
03:30 AM 55.3°F12.9°C 41.2°F5.1°C 59% 1.2 mph NE1.9 kmh NE 2.3 mph3.7 kmh 30.23 in1023.7 mb - 0.00 in0.0 mm 0.00 in0.0 mm
03:20 AM 55.6°F13.1°C 41.1°F5.1°C 58% 2.3 mph NE3.7 kmh NE 3.5 mph5.6 kmh 30.23 in1023.7 mb - 0.00 in0.0 mm 0.00 in0.0 mm
03:10 AM 56.3°F13.5°C 41.2°F5.1°C 57% 3.5 mph NE5.6 kmh NE 4.6 mph7.4 kmh 30.23 in1023.7 mb - 0.00 in0.0 mm 0.00 in0.0 mm
03:00 AM 56.5°F13.6°C 41.4°F5.2°C 57% 3.5 mph NE5.6 kmh NE 4.6 mph7.4 kmh 30.23 in1023.7 mb - 0.00 in0.0 mm 0.00 in0.0 mm
02:50 AM 56.4°F13.6°C 41.3°F5.2°C 57% 4.6 mph NE7.4 kmh NE 6.9 mph11.1 kmh 30.23 in1023.7 mb - 0.00 in0.0 mm 0.00 in0.0 mm
02:40 AM 56.4°F13.6°C 41.8°F5.4°C 58% 3.5 mph NE5.6 kmh NE 6.9 mph11.1 kmh 30.23 in1023.7 mb - 0.00 in0.0 mm 0.00 in0.0 mm
02:30 AM 56.2°F13.4°C 41.6°F5.3°C 58% 2.3 mph NE3.7 kmh NE 4.6 mph7.4 kmh 30.23 in1023.7 mb - 0.00 in0.0 mm 0.00 in0.0 mm
02:20 AM 56.2°F13.4°C 41.2°F5.1°C 57% 2.3 mph NE3.7 kmh NE 4.6 mph7.4 kmh 30.23 in1023.7 mb - 0.00 in0.0 mm 0.00 in0.0 mm
02:10 AM 56.4°F13.6°C 41.3°F5.2°C 57% 2.3 mph NE3.7 kmh NE 3.5 mph5.6 kmh 30.23 in1023.7 mb - 0.00 in0.0 mm 0.00 in0.0 mm
02:00 AM 56.5°F13.6°C 41.0°F5.0°C 56% 2.3 mph NE3.7 kmh NE 4.6 mph7.4 kmh 30.23 in1023.7 mb - 0.00 in0.0 mm 0.00 in0.0 mm
01:50 AM 56.5°F13.6°C 41.4°F5.2°C 57% 2.3 mph NE3.7 kmh NE 6.9 mph11.1 kmh 30.23 in1023.7 mb - 0.00 in0.0 mm 0.00 in0.0 mm
01:40 AM 56.2°F13.4°C 41.6°F5.3°C 58% 3.5 mph NE5.6 kmh NE 5.8 mph9.3 kmh 30.23 in1023.7 mb - 0.00 in0.0 mm 0.00 in0.0 mm
01:30 AM 56.3°F13.5°C 42.1°F5.6°C 59% 4.6 mph NE7.4 kmh NE 5.8 mph9.3 kmh 30.24 in1024.0 mb - 0.00 in0.0 mm 0.00 in0.0 mm
01:20 AM 56.0°F13.3°C 42.3°F5.7°C 60% 5.8 mph NE9.3 kmh NE 9.2 mph14.8 kmh 30.24 in1024.0 mb - 0.00 in0.0 mm 0.00 in0.0 mm
01:10 AM 55.3°F12.9°C 41.7°F5.4°C 60% 3.5 mph NE5.6 kmh NE 6.9 mph11.1 kmh 30.24 in1024.0 mb - 0.00 in0.0 mm 0.00 in0.0 mm
01:00 AM 55.6°F13.1°C 41.9°F5.5°C 60% 2.3 mph NE3.7 kmh NE 3.5 mph5.6 kmh 30.24 in1024.0 mb - 0.00 in0.0 mm 0.00 in0.0 mm
12:50 AM 56.4°F13.6°C 41.8°F5.4°C 58% 1.2 mph NE1.9 kmh NE 2.3 mph3.7 kmh 30.24 in1024.0 mb - 0.00 in0.0 mm 0.00 in0.0 mm
12:40 AM 56.8°F13.8°C 41.7°F5.4°C 57% 4.6 mph NE7.4 kmh NE 5.8 mph9.3 kmh 30.24 in1024.0 mb - 0.00 in0.0 mm 0.00 in0.0 mm
12:30 AM 56.9°F13.8°C 42.3°F5.7°C 58% 5.8 mph NE9.3 kmh NE 8.1 mph13.0 kmh 30.24 in1024.0 mb - 0.00 in0.0 mm 0.00 in0.0 mm
12:20 AM 56.8°F13.8°C 43.0°F6.1°C 60% 4.6 mph NE7.4 kmh NE 9.2 mph14.8 kmh 30.24 in1024.0 mb - 0.00 in0.0 mm 0.00 in0.0 mm
12:10 AM 56.6°F13.7°C 42.4°F5.8°C 59% 4.6 mph NE7.4 kmh NE 5.8 mph9.3 kmh 30.24 in1024.0 mb - 0.00 in0.0 mm 0.00 in0.0 mm
12:00 AM 56.6°F13.7°C 42.5°F5.8°C 59% 2.3 mph NE3.7 kmh NE 3.5 mph5.6 kmh 30.24 in1024.0 mb - 0.00 in0.0 mm 0.00 in0.0 mm